Terminal Aerodrome Forecast
Issued by NWS

Home | Current Version | Previous Version | Text Only | Print | Product List | Glossary On
Versions: 1 2 3 4 5 6 7 8 9 10 11 12 13 14 15
000
FTUS45 KRIW 232320
TAFPNA
TAF
KPNA 232320Z 2400/2424 31016G24KT P6SM VCSH SCT060 BKN090
     FM240130 33011KT P6SM VCSH BKN060
     FM240400 32007KT P6SM SCT070
     FM241400 29006KT P6SM VCSH SCT035 BKN060
     FM241600 VRB06KT 6SM -SHRA SCT015 BKN025 OVC035
      AMD LTD TO CLD VIS AND WIND=

USA.gov is the U.S. government's official web portal to all federal, state and local government web resources and services.